sensor_id;sensor_type;location;lat;lon;timestamp;P1;durP1;ratioP1;P2;durP2;ratioP2
56321;SDS011;42227;6.376;-10.782;2023-04-30T00:00:34;12.57;;;4.22;;
56321;SDS011;42227;6.376;-10.782;2023-04-30T00:03:02;11.02;;;4.03;;
56321;SDS011;42227;6.376;-10.782;2023-04-30T00:05:31;11.30;;;4.13;;
56321;SDS011;42227;6.376;-10.782;2023-04-30T00:07:59;10.98;;;4.68;;
56321;SDS011;42227;6.376;-10.782;2023-04-30T00:10:27;6.45;;;3.70;;
56321;SDS011;42227;6.376;-10.782;2023-04-30T00:12:55;9.93;;;4.18;;
56321;SDS011;42227;6.376;-10.782;2023-04-30T00:15:24;7.32;;;4.07;;
56321;SDS011;42227;6.376;-10.782;2023-04-30T00:17:55;16.03;;;4.60;;
56321;SDS011;42227;6.376;-10.782;2023-04-30T00:20:23;4.80;;;3.78;;
56321;SDS011;42227;6.376;-10.782;2023-04-30T00:22:51;12.32;;;3.47;;
56321;SDS011;42227;6.376;-10.782;2023-04-30T00:25:20;6.50;;;4.28;;
56321;SDS011;42227;6.376;-10.782;2023-04-30T00:27:48;12.52;;;4.25;;
56321;SDS011;42227;6.376;-10.782;2023-04-30T00:30:16;8.45;;;4.30;;
56321;SDS011;42227;6.376;-10.782;2023-04-30T00:32:45;9.98;;;4.15;;
56321;SDS011;42227;6.376;-10.782;2023-04-30T00:35:13;9.35;;;3.80;;
56321;SDS011;42227;6.376;-10.782;2023-04-30T00:37:41;12.60;;;3.88;;
56321;SDS011;42227;6.376;-10.782;2023-04-30T00:40:10;9.52;;;4.55;;
56321;SDS011;42227;6.376;-10.782;2023-04-30T00:42:38;6.82;;;4.07;;
56321;SDS011;42227;6.376;-10.782;2023-04-30T00:45:06;6.40;;;3.15;;
56321;SDS011;42227;6.376;-10.782;2023-04-30T00:47:35;9.02;;;4.05;;
56321;SDS011;42227;6.376;-10.782;2023-04-30T00:50:04;6.60;;;4.22;;
56321;SDS011;42227;6.376;-10.782;2023-04-30T00:52:32;11.75;;;3.95;;
56321;SDS011;42227;6.376;-10.782;2023-04-30T00:55:00;10.60;;;4.72;;
56321;SDS011;42227;6.376;-10.782;2023-04-30T00:57:29;17.73;;;5.18;;
56321;SDS011;42227;6.376;-10.782;2023-04-30T00:59:57;6.70;;;4.30;;
56321;SDS011;42227;6.376;-10.782;2023-04-30T01:02:26;4.25;;;3.53;;
56321;SDS011;42227;6.376;-10.782;2023-04-30T01:04:56;6.10;;;3.30;;
56321;SDS011;42227;6.376;-10.782;2023-04-30T01:07:24;7.40;;;3.42;;
56321;SDS011;42227;6.376;-10.782;2023-04-30T01:09:53;13.57;;;3.75;;
56321;SDS011;42227;6.376;-10.782;2023-04-30T01:15:29;7.60;;;3.28;;
56321;SDS011;42227;6.376;-10.782;2023-04-30T01:18:06;5.65;;;3.78;;
56321;SDS011;42227;6.376;-10.782;2023-04-30T01:20:54;6.40;;;3.47;;
56321;SDS011;42227;6.376;-10.782;2023-04-30T01:26:19;11.27;;;5.03;;
56321;SDS011;42227;6.376;-10.782;2023-04-30T01:29:13;9.55;;;3.72;;
56321;SDS011;42227;6.376;-10.782;2023-04-30T01:31:43;9.32;;;4.60;;
56321;SDS011;42227;6.376;-10.782;2023-04-30T01:34:11;14.77;;;4.72;;
56321;SDS011;42227;6.376;-10.782;2023-04-30T01:42:57;5.10;;;3.92;;
56321;SDS011;42227;6.376;-10.782;2023-04-30T01:48:21;7.60;;;4.28;;
56321;SDS011;42227;6.376;-10.782;2023-04-30T01:51:15;9.05;;;4.20;;
56321;SDS011;42227;6.376;-10.782;2023-04-30T01:54:02;13.48;;;4.60;;
56321;SDS011;42227;6.376;-10.782;2023-04-30T01:56:40;9.52;;;4.10;;
56321;SDS011;42227;6.376;-10.782;2023-04-30T01:59:12;6.90;;;3.85;;
56321;SDS011;42227;6.376;-10.782;2023-04-30T02:01:42;12.73;;;4.80;;
56321;SDS011;42227;6.376;-10.782;2023-04-30T02:04:10;14.45;;;4.22;;
56321;SDS011;42227;6.376;-10.782;2023-04-30T02:06:38;15.70;;;4.25;;
56321;SDS011;42227;6.376;-10.782;2023-04-30T02:09:07;16.52;;;4.68;;
56321;SDS011;42227;6.376;-10.782;2023-04-30T02:11:35;7.82;;;3.47;;
56321;SDS011;42227;6.376;-10.782;2023-04-30T02:14:04;9.20;;;3.40;;
56321;SDS011;42227;6.376;-10.782;2023-04-30T02:16:32;5.60;;;3.20;;
56321;SDS011;42227;6.376;-10.782;2023-04-30T02:19:01;9.00;;;4.55;;
56321;SDS011;42227;6.376;-10.782;2023-04-30T02:21:29;7.82;;;3.92;;
56321;SDS011;42227;6.376;-10.782;2023-04-30T02:23:57;11.50;;;4.13;;
56321;SDS011;42227;6.376;-10.782;2023-04-30T02:26:26;7.63;;;3.10;;
56321;SDS011;42227;6.376;-10.782;2023-04-30T02:28:54;5.72;;;3.10;;
56321;SDS011;42227;6.376;-10.782;2023-04-30T02:31:22;8.25;;;3.13;;
56321;SDS011;42227;6.376;-10.782;2023-04-30T02:33:50;12.18;;;3.53;;
56321;SDS011;42227;6.376;-10.782;2023-04-30T02:36:19;6.55;;;3.42;;
56321;SDS011;42227;6.376;-10.782;2023-04-30T02:38:47;7.22;;;4.00;;
56321;SDS011;42227;6.376;-10.782;2023-04-30T02:41:15;6.07;;;3.75;;
56321;SDS011;42227;6.376;-10.782;2023-04-30T02:43:43;13.48;;;3.50;;
56321;SDS011;42227;6.376;-10.782;2023-04-30T02:46:12;6.97;;;3.33;;
56321;SDS011;42227;6.376;-10.782;2023-04-30T02:48:40;10.27;;;3.50;;
56321;SDS011;42227;6.376;-10.782;2023-04-30T02:51:08;17.50;;;8.13;;
56321;SDS011;42227;6.376;-10.782;2023-04-30T02:53:36;11.00;;;6.57;;
56321;SDS011;42227;6.376;-10.782;2023-04-30T02:56:05;9.52;;;5.47;;
56321;SDS011;42227;6.376;-10.782;2023-04-30T02:58:33;11.35;;;6.32;;
56321;SDS011;42227;6.376;-10.782;2023-04-30T03:01:02;13.88;;;5.85;;
56321;SDS011;42227;6.376;-10.782;2023-04-30T03:03:30;13.50;;;6.90;;
56321;SDS011;42227;6.376;-10.782;2023-04-30T03:05:59;18.77;;;8.55;;
56321;SDS011;42227;6.376;-10.782;2023-04-30T03:08:27;22.70;;;7.47;;
56321;SDS011;42227;6.376;-10.782;2023-04-30T03:10:56;19.77;;;8.15;;
56321;SDS011;42227;6.376;-10.782;2023-04-30T03:13:24;10.45;;;5.50;;
56321;SDS011;42227;6.376;-10.782;2023-04-30T03:15:56;10.25;;;5.90;;
56321;SDS011;42227;6.376;-10.782;2023-04-30T03:18:28;13.85;;;5.90;;
56321;SDS011;42227;6.376;-10.782;2023-04-30T03:20:56;10.60;;;7.32;;
56321;SDS011;42227;6.376;-10.782;2023-04-30T03:23:26;15.95;;;6.68;;
56321;SDS011;42227;6.376;-10.782;2023-04-30T03:25:54;16.60;;;8.20;;
56321;SDS011;42227;6.376;-10.782;2023-04-30T03:28:23;19.30;;;8.63;;
56321;SDS011;42227;6.376;-10.782;2023-04-30T03:30:51;14.75;;;7.97;;
56321;SDS011;42227;6.376;-10.782;2023-04-30T03:33:19;12.02;;;7.38;;
56321;SDS011;42227;6.376;-10.782;2023-04-30T03:35:48;15.63;;;6.80;;
56321;SDS011;42227;6.376;-10.782;2023-04-30T03:38:16;21.00;;;9.00;;
56321;SDS011;42227;6.376;-10.782;2023-04-30T03:40:45;13.20;;;8.15;;
56321;SDS011;42227;6.376;-10.782;2023-04-30T03:43:13;26.25;;;9.95;;
56321;SDS011;42227;6.376;-10.782;2023-04-30T03:45:42;21.48;;;8.52;;
56321;SDS011;42227;6.376;-10.782;2023-04-30T03:48:10;11.13;;;6.57;;
56321;SDS011;42227;6.376;-10.782;2023-04-30T03:50:39;11.85;;;6.70;;
56321;SDS011;42227;6.376;-10.782;2023-04-30T03:53:08;18.98;;;6.53;;
56321;SDS011;42227;6.376;-10.782;2023-04-30T03:55:36;15.55;;;7.85;;
56321;SDS011;42227;6.376;-10.782;2023-04-30T03:58:05;20.75;;;6.95;;
56321;SDS011;42227;6.376;-10.782;2023-04-30T04:00:33;24.48;;;6.97;;
56321;SDS011;42227;6.376;-10.782;2023-04-30T04:03:01;14.63;;;5.65;;
56321;SDS011;42227;6.376;-10.782;2023-04-30T04:05:30;8.40;;;5.30;;
56321;SDS011;42227;6.376;-10.782;2023-04-30T04:07:59;14.00;;;7.50;;
56321;SDS011;42227;6.376;-10.782;2023-04-30T04:10:28;9.32;;;4.78;;
56321;SDS011;42227;6.376;-10.782;2023-04-30T04:12:56;11.25;;;7.07;;
56321;SDS011;42227;6.376;-10.782;2023-04-30T04:15:24;11.18;;;5.90;;
56321;SDS011;42227;6.376;-10.782;2023-04-30T04:17:52;11.07;;;5.78;;
56321;SDS011;42227;6.376;-10.782;2023-04-30T04:20:21;18.13;;;7.60;;
56321;SDS011;42227;6.376;-10.782;2023-04-30T04:22:49;20.27;;;9.95;;
56321;SDS011;42227;6.376;-10.782;2023-04-30T04:25:18;25.05;;;11.23;;
56321;SDS011;42227;6.376;-10.782;2023-04-30T04:27:46;15.07;;;7.38;;
56321;SDS011;42227;6.376;-10.782;2023-04-30T04:30:14;13.00;;;9.30;;
56321;SDS011;42227;6.376;-10.782;2023-04-30T04:32:45;9.00;;;6.38;;
56321;SDS011;42227;6.376;-10.782;2023-04-30T04:35:14;29.67;;;7.88;;
56321;SDS011;42227;6.376;-10.782;2023-04-30T04:37:43;12.80;;;5.75;;
56321;SDS011;42227;6.376;-10.782;2023-04-30T04:40:12;10.20;;;6.30;;
56321;SDS011;42227;6.376;-10.782;2023-04-30T04:42:40;14.15;;;5.38;;
56321;SDS011;42227;6.376;-10.782;2023-04-30T04:45:10;6.78;;;4.20;;
56321;SDS011;42227;6.376;-10.782;2023-04-30T04:47:39;7.30;;;5.25;;
56321;SDS011;42227;6.376;-10.782;2023-04-30T04:50:07;7.13;;;5.68;;
56321;SDS011;42227;6.376;-10.782;2023-04-30T04:52:36;7.43;;;4.57;;
56321;SDS011;42227;6.376;-10.782;2023-04-30T04:55:04;8.43;;;5.43;;
56321;SDS011;42227;6.376;-10.782;2023-04-30T04:57:33;5.45;;;4.70;;
56321;SDS011;42227;6.376;-10.782;2023-04-30T05:00:01;16.05;;;5.13;;
56321;SDS011;42227;6.376;-10.782;2023-04-30T05:02:29;12.43;;;5.57;;
56321;SDS011;42227;6.376;-10.782;2023-04-30T05:07:59;9.85;;;6.18;;
56321;SDS011;42227;6.376;-10.782;2023-04-30T05:10:27;10.65;;;6.53;;
56321;SDS011;42227;6.376;-10.782;2023-04-30T05:12:56;9.80;;;5.95;;
56321;SDS011;42227;6.376;-10.782;2023-04-30T05:15:24;10.27;;;6.53;;
56321;SDS011;42227;6.376;-10.782;2023-04-30T05:17:52;14.45;;;6.38;;
56321;SDS011;42227;6.376;-10.782;2023-04-30T05:20:20;15.73;;;5.57;;
56321;SDS011;42227;6.376;-10.782;2023-04-30T05:22:49;11.68;;;6.82;;
56321;SDS011;42227;6.376;-10.782;2023-04-30T05:25:17;7.32;;;4.90;;
56321;SDS011;42227;6.376;-10.782;2023-04-30T05:27:45;21.05;;;8.07;;
56321;SDS011;42227;6.376;-10.782;2023-04-30T05:30:13;10.48;;;5.47;;
56321;SDS011;42227;6.376;-10.782;2023-04-30T05:32:42;12.65;;;6.00;;
56321;SDS011;42227;6.376;-10.782;2023-04-30T05:35:10;12.93;;;7.50;;
56321;SDS011;42227;6.376;-10.782;2023-04-30T05:37:38;11.57;;;7.00;;
56321;SDS011;42227;6.376;-10.782;2023-04-30T05:40:07;14.05;;;5.93;;
56321;SDS011;42227;6.376;-10.782;2023-04-30T05:42:35;9.45;;;5.85;;
56321;SDS011;42227;6.376;-10.782;2023-04-30T05:45:04;13.70;;;6.05;;
56321;SDS011;42227;6.376;-10.782;2023-04-30T05:47:32;11.35;;;6.75;;
56321;SDS011;42227;6.376;-10.782;2023-04-30T05:50:00;15.68;;;6.63;;
56321;SDS011;42227;6.376;-10.782;2023-04-30T05:52:29;10.02;;;5.72;;
56321;SDS011;42227;6.376;-10.782;2023-04-30T05:54:57;10.32;;;7.43;;
56321;SDS011;42227;6.376;-10.782;2023-04-30T05:57:25;21.17;;;9.23;;
56321;SDS011;42227;6.376;-10.782;2023-04-30T05:59:54;19.05;;;9.07;;
56321;SDS011;42227;6.376;-10.782;2023-04-30T06:02:22;18.10;;;8.40;;
56321;SDS011;42227;6.376;-10.782;2023-04-30T06:04:51;13.38;;;8.32;;
56321;SDS011;42227;6.376;-10.782;2023-04-30T06:07:19;18.88;;;8.35;;
56321;SDS011;42227;6.376;-10.782;2023-04-30T06:09:47;16.20;;;8.15;;
56321;SDS011;42227;6.376;-10.782;2023-04-30T06:12:16;26.90;;;8.05;;
56321;SDS011;42227;6.376;-10.782;2023-04-30T06:14:44;21.65;;;7.45;;
56321;SDS011;42227;6.376;-10.782;2023-04-30T06:17:12;8.52;;;5.93;;
56321;SDS011;42227;6.376;-10.782;2023-04-30T06:19:40;21.85;;;7.22;;
56321;SDS011;42227;6.376;-10.782;2023-04-30T06:22:09;15.63;;;7.80;;
56321;SDS011;42227;6.376;-10.782;2023-04-30T06:24:37;18.73;;;8.75;;
56321;SDS011;42227;6.376;-10.782;2023-04-30T06:27:05;25.48;;;9.50;;
56321;SDS011;42227;6.376;-10.782;2023-04-30T06:29:34;18.25;;;9.93;;
56321;SDS011;42227;6.376;-10.782;2023-04-30T06:32:03;13.85;;;9.38;;
56321;SDS011;42227;6.376;-10.782;2023-04-30T06:34:38;17.30;;;9.30;;
56321;SDS011;42227;6.376;-10.782;2023-04-30T06:37:06;12.80;;;8.13;;
56321;SDS011;42227;6.376;-10.782;2023-04-30T06:39:34;16.73;;;7.82;;
56321;SDS011;42227;6.376;-10.782;2023-04-30T06:42:03;10.27;;;7.68;;
56321;SDS011;42227;6.376;-10.782;2023-04-30T06:44:31;10.13;;;6.80;;
56321;SDS011;42227;6.376;-10.782;2023-04-30T06:46:59;8.50;;;6.10;;
56321;SDS011;42227;6.376;-10.782;2023-04-30T06:49:28;10.93;;;6.28;;
56321;SDS011;42227;6.376;-10.782;2023-04-30T06:51:56;13.40;;;6.53;;
56321;SDS011;42227;6.376;-10.782;2023-04-30T06:54:24;11.25;;;5.80;;
56321;SDS011;42227;6.376;-10.782;2023-04-30T06:56:52;9.02;;;5.72;;
56321;SDS011;42227;6.376;-10.782;2023-04-30T06:59:20;13.25;;;6.32;;
56321;SDS011;42227;6.376;-10.782;2023-04-30T07:01:49;15.80;;;9.60;;
56321;SDS011;42227;6.376;-10.782;2023-04-30T07:04:17;16.50;;;7.93;;
56321;SDS011;42227;6.376;-10.782;2023-04-30T07:06:45;17.13;;;8.80;;
56321;SDS011;42227;6.376;-10.782;2023-04-30T07:09:14;16.88;;;9.23;;
56321;SDS011;42227;6.376;-10.782;2023-04-30T07:11:42;30.73;;;11.32;;
56321;SDS011;42227;6.376;-10.782;2023-04-30T07:14:10;19.30;;;10.63;;
56321;SDS011;42227;6.376;-10.782;2023-04-30T07:16:38;34.20;;;11.98;;
56321;SDS011;42227;6.376;-10.782;2023-04-30T07:19:06;13.73;;;8.27;;
56321;SDS011;42227;6.376;-10.782;2023-04-30T07:21:34;14.25;;;8.23;;
56321;SDS011;42227;6.376;-10.782;2023-04-30T07:24:03;23.35;;;9.35;;
56321;SDS011;42227;6.376;-10.782;2023-04-30T07:26:31;12.43;;;5.97;;
56321;SDS011;42227;6.376;-10.782;2023-04-30T07:28:59;23.92;;;7.78;;
56321;SDS011;42227;6.376;-10.782;2023-04-30T07:31:28;17.33;;;8.13;;
56321;SDS011;42227;6.376;-10.782;2023-04-30T07:33:56;8.05;;;6.28;;
56321;SDS011;42227;6.376;-10.782;2023-04-30T07:36:24;20.55;;;6.22;;
56321;SDS011;42227;6.376;-10.782;2023-04-30T07:38:53;15.10;;;7.57;;
56321;SDS011;42227;6.376;-10.782;2023-04-30T07:41:22;27.63;;;10.18;;
56321;SDS011;42227;6.376;-10.782;2023-04-30T07:43:51;13.70;;;8.27;;
56321;SDS011;42227;6.376;-10.782;2023-04-30T07:46:19;14.43;;;8.77;;
56321;SDS011;42227;6.376;-10.782;2023-04-30T07:48:47;11.32;;;7.70;;
56321;SDS011;42227;6.376;-10.782;2023-04-30T07:51:16;16.08;;;7.45;;
56321;SDS011;42227;6.376;-10.782;2023-04-30T07:53:44;16.45;;;7.40;;
56321;SDS011;42227;6.376;-10.782;2023-04-30T07:56:12;10.02;;;8.00;;
56321;SDS011;42227;6.376;-10.782;2023-04-30T07:58:40;13.70;;;7.95;;
56321;SDS011;42227;6.376;-10.782;2023-04-30T08:01:09;14.68;;;8.23;;
56321;SDS011;42227;6.376;-10.782;2023-04-30T08:03:37;16.33;;;6.95;;
56321;SDS011;42227;6.376;-10.782;2023-04-30T08:06:05;20.55;;;8.13;;
56321;SDS011;42227;6.376;-10.782;2023-04-30T08:08:34;13.25;;;6.55;;
56321;SDS011;42227;6.376;-10.782;2023-04-30T08:11:02;13.32;;;6.93;;
56321;SDS011;42227;6.376;-10.782;2023-04-30T08:13:30;11.02;;;7.40;;
56321;SDS011;42227;6.376;-10.782;2023-04-30T08:15:59;10.32;;;6.07;;
56321;SDS011;42227;6.376;-10.782;2023-04-30T08:18:28;12.75;;;7.50;;
56321;SDS011;42227;6.376;-10.782;2023-04-30T08:20:56;13.20;;;6.88;;
56321;SDS011;42227;6.376;-10.782;2023-04-30T08:23:24;10.82;;;6.22;;
56321;SDS011;42227;6.376;-10.782;2023-04-30T08:25:53;8.77;;;5.25;;
56321;SDS011;42227;6.376;-10.782;2023-04-30T08:28:21;16.52;;;5.57;;
56321;SDS011;42227;6.376;-10.782;2023-04-30T08:30:49;13.13;;;5.38;;
56321;SDS011;42227;6.376;-10.782;2023-04-30T08:33:17;16.70;;;5.28;;
56321;SDS011;42227;6.376;-10.782;2023-04-30T08:35:46;11.38;;;6.68;;
56321;SDS011;42227;6.376;-10.782;2023-04-30T08:38:14;9.38;;;5.88;;
56321;SDS011;42227;6.376;-10.782;2023-04-30T08:40:42;8.02;;;5.15;;
56321;SDS011;42227;6.376;-10.782;2023-04-30T08:43:32;11.95;;;5.40;;
56321;SDS011;42227;6.376;-10.782;2023-04-30T08:46:01;12.85;;;5.38;;
56321;SDS011;42227;6.376;-10.782;2023-04-30T08:48:30;13.23;;;5.07;;
56321;SDS011;42227;6.376;-10.782;2023-04-30T08:51:02;6.68;;;4.25;;
56321;SDS011;42227;6.376;-10.782;2023-04-30T08:53:33;10.57;;;5.93;;
56321;SDS011;42227;6.376;-10.782;2023-04-30T08:56:03;16.42;;;6.30;;
56321;SDS011;42227;6.376;-10.782;2023-04-30T08:58:31;8.63;;;4.80;;
56321;SDS011;42227;6.376;-10.782;2023-04-30T09:01:00;18.83;;;6.05;;
56321;SDS011;42227;6.376;-10.782;2023-04-30T09:03:29;15.55;;;7.18;;
56321;SDS011;42227;6.376;-10.782;2023-04-30T09:05:58;9.70;;;5.45;;
56321;SDS011;42227;6.376;-10.782;2023-04-30T09:11:32;16.83;;;6.80;;
56321;SDS011;42227;6.376;-10.782;2023-04-30T09:14:00;18.98;;;5.93;;
56321;SDS011;42227;6.376;-10.782;2023-04-30T09:16:29;15.20;;;7.28;;
56321;SDS011;42227;6.376;-10.782;2023-04-30T09:19:23;7.97;;;4.95;;
56321;SDS011;42227;6.376;-10.782;2023-04-30T09:21:56;14.73;;;6.03;;
56321;SDS011;42227;6.376;-10.782;2023-04-30T09:24:25;17.98;;;6.82;;
56321;SDS011;42227;6.376;-10.782;2023-04-30T09:26:53;7.80;;;5.93;;
56321;SDS011;42227;6.376;-10.782;2023-04-30T09:29:21;22.33;;;5.75;;
56321;SDS011;42227;6.376;-10.782;2023-04-30T09:32:07;9.48;;;5.65;;
56321;SDS011;42227;6.376;-10.782;2023-04-30T09:34:36;17.45;;;6.07;;
56321;SDS011;42227;6.376;-10.782;2023-04-30T09:37:04;14.52;;;4.35;;
56321;SDS011;42227;6.376;-10.782;2023-04-30T09:39:32;7.20;;;4.60;;
56321;SDS011;42227;6.376;-10.782;2023-04-30T09:42:12;6.07;;;4.40;;
56321;SDS011;42227;6.376;-10.782;2023-04-30T09:44:41;13.07;;;5.43;;
56321;SDS011;42227;6.376;-10.782;2023-04-30T09:47:10;9.45;;;4.93;;
56321;SDS011;42227;6.376;-10.782;2023-04-30T09:49:40;10.98;;;4.97;;
56321;SDS011;42227;6.376;-10.782;2023-04-30T09:52:09;8.68;;;4.40;;
56321;SDS011;42227;6.376;-10.782;2023-04-30T09:54:38;16.48;;;5.80;;
56321;SDS011;42227;6.376;-10.782;2023-04-30T09:57:08;19.83;;;4.95;;
56321;SDS011;42227;6.376;-10.782;2023-04-30T09:59:38;9.27;;;4.20;;
56321;SDS011;42227;6.376;-10.782;2023-04-30T10:02:13;8.50;;;4.55;;
56321;SDS011;42227;6.376;-10.782;2023-04-30T10:04:43;13.77;;;4.53;;
56321;SDS011;42227;6.376;-10.782;2023-04-30T10:07:17;14.15;;;4.25;;
56321;SDS011;42227;6.376;-10.782;2023-04-30T10:09:49;11.70;;;3.97;;
56321;SDS011;42227;6.376;-10.782;2023-04-30T10:12:31;7.03;;;4.22;;
56321;SDS011;42227;6.376;-10.782;2023-04-30T10:15:11;8.70;;;4.82;;
56321;SDS011;42227;6.376;-10.782;2023-04-30T10:17:59;14.02;;;5.03;;
56321;SDS011;42227;6.376;-10.782;2023-04-30T10:20:30;13.50;;;7.15;;
56321;SDS011;42227;6.376;-10.782;2023-04-30T10:25:29;9.80;;;3.90;;
56321;SDS011;42227;6.376;-10.782;2023-04-30T10:27:58;7.60;;;4.70;;
56321;SDS011;42227;6.376;-10.782;2023-04-30T10:35:46;6.95;;;4.57;;
56321;SDS011;42227;6.376;-10.782;2023-04-30T10:38:28;7.45;;;4.65;;
56321;SDS011;42227;6.376;-10.782;2023-04-30T10:40:59;8.65;;;4.50;;
56321;SDS011;42227;6.376;-10.782;2023-04-30T10:45:59;8.55;;;4.20;;
56321;SDS011;42227;6.376;-10.782;2023-04-30T10:48:28;6.68;;;4.28;;
56321;SDS011;42227;6.376;-10.782;2023-04-30T10:51:01;10.75;;;4.22;;
56321;SDS011;42227;6.376;-10.782;2023-04-30T10:53:29;8.80;;;4.25;;
56321;SDS011;42227;6.376;-10.782;2023-04-30T10:58:29;6.57;;;4.43;;
56321;SDS011;42227;6.376;-10.782;2023-04-30T11:01:00;9.07;;;3.17;;
56321;SDS011;42227;6.376;-10.782;2023-04-30T11:03:36;18.88;;;7.00;;
56321;SDS011;42227;6.376;-10.782;2023-04-30T11:06:07;9.87;;;5.53;;
56321;SDS011;42227;6.376;-10.782;2023-04-30T11:08:42;8.65;;;5.47;;
56321;SDS011;42227;6.376;-10.782;2023-04-30T11:11:20;10.55;;;4.95;;
56321;SDS011;42227;6.376;-10.782;2023-04-30T11:13:59;7.28;;;4.72;;
56321;SDS011;42227;6.376;-10.782;2023-04-30T11:16:28;13.52;;;4.03;;
56321;SDS011;42227;6.376;-10.782;2023-04-30T11:19:10;11.00;;;4.15;;
56321;SDS011;42227;6.376;-10.782;2023-04-30T11:22:25;6.13;;;3.80;;
56321;SDS011;42227;6.376;-10.782;2023-04-30T11:27:27;7.78;;;4.38;;
56321;SDS011;42227;6.376;-10.782;2023-04-30T11:29:57;9.07;;;4.03;;
56321;SDS011;42227;6.376;-10.782;2023-04-30T11:32:33;20.80;;;4.22;;
56321;SDS011;42227;6.376;-10.782;2023-04-30T11:35:03;15.27;;;5.20;;
56321;SDS011;42227;6.376;-10.782;2023-04-30T11:37:33;14.98;;;4.70;;
56321;SDS011;42227;6.376;-10.782;2023-04-30T11:40:07;10.32;;;4.82;;
56321;SDS011;42227;6.376;-10.782;2023-04-30T11:42:37;8.38;;;3.75;;
56321;SDS011;42227;6.376;-10.782;2023-04-30T11:45:10;15.23;;;4.45;;
56321;SDS011;42227;6.376;-10.782;2023-04-30T11:47:44;4.43;;;2.92;;
56321;SDS011;42227;6.376;-10.782;2023-04-30T11:50:15;6.30;;;3.95;;
56321;SDS011;42227;6.376;-10.782;2023-04-30T11:52:49;9.45;;;5.18;;
56321;SDS011;42227;6.376;-10.782;2023-04-30T11:55:19;8.75;;;4.43;;
56321;SDS011;42227;6.376;-10.782;2023-04-30T11:57:53;10.25;;;4.97;;
56321;SDS011;42227;6.376;-10.782;2023-04-30T12:00:29;15.93;;;5.40;;
56321;SDS011;42227;6.376;-10.782;2023-04-30T12:02:58;12.88;;;5.40;;
56321;SDS011;42227;6.376;-10.782;2023-04-30T12:05:28;7.90;;;4.28;;
56321;SDS011;42227;6.376;-10.782;2023-04-30T12:07:59;7.18;;;3.90;;
56321;SDS011;42227;6.376;-10.782;2023-04-30T12:10:30;12.27;;;4.72;;
56321;SDS011;42227;6.376;-10.782;2023-04-30T12:12:59;17.40;;;4.57;;
56321;SDS011;42227;6.376;-10.782;2023-04-30T12:15:27;9.80;;;5.05;;
56321;SDS011;42227;6.376;-10.782;2023-04-30T12:17:59;12.02;;;3.65;;
56321;SDS011;42227;6.376;-10.782;2023-04-30T12:20:40;15.13;;;4.47;;
56321;SDS011;42227;6.376;-10.782;2023-04-30T12:23:09;8.02;;;4.25;;
56321;SDS011;42227;6.376;-10.782;2023-04-30T12:25:40;11.88;;;4.22;;
56321;SDS011;42227;6.376;-10.782;2023-04-30T12:28:09;7.60;;;4.05;;
56321;SDS011;42227;6.376;-10.782;2023-04-30T12:30:38;7.00;;;3.38;;
56321;SDS011;42227;6.376;-10.782;2023-04-30T12:33:09;8.50;;;4.53;;
56321;SDS011;42227;6.376;-10.782;2023-04-30T12:35:40;11.25;;;4.40;;
56321;SDS011;42227;6.376;-10.782;2023-04-30T12:38:10;8.50;;;4.05;;
56321;SDS011;42227;6.376;-10.782;2023-04-30T12:40:45;10.85;;;5.13;;
56321;SDS011;42227;6.376;-10.782;2023-04-30T12:43:14;10.25;;;4.28;;
56321;SDS011;42227;6.376;-10.782;2023-04-30T12:45:53;10.27;;;4.13;;
56321;SDS011;42227;6.376;-10.782;2023-04-30T12:48:22;12.02;;;5.10;;
56321;SDS011;42227;6.376;-10.782;2023-04-30T12:50:58;9.95;;;4.22;;
56321;SDS011;42227;6.376;-10.782;2023-04-30T12:53:28;12.90;;;7.72;;
56321;SDS011;42227;6.376;-10.782;2023-04-30T12:56:05;12.13;;;6.70;;
56321;SDS011;42227;6.376;-10.782;2023-04-30T12:58:42;11.45;;;5.35;;
56321;SDS011;42227;6.376;-10.782;2023-04-30T13:01:11;13.63;;;4.50;;
56321;SDS011;42227;6.376;-10.782;2023-04-30T13:03:40;21.40;;;5.85;;
56321;SDS011;42227;6.376;-10.782;2023-04-30T13:06:08;9.57;;;4.38;;
56321;SDS011;42227;6.376;-10.782;2023-04-30T13:08:37;9.05;;;4.53;;
56321;SDS011;42227;6.376;-10.782;2023-04-30T13:11:24;7.38;;;3.38;;
56321;SDS011;42227;6.376;-10.782;2023-04-30T13:13:53;7.45;;;4.72;;
56321;SDS011;42227;6.376;-10.782;2023-04-30T13:16:22;7.90;;;4.88;;
56321;SDS011;42227;6.376;-10.782;2023-04-30T13:18:51;6.88;;;4.18;;
56321;SDS011;42227;6.376;-10.782;2023-04-30T13:21:20;9.77;;;6.00;;
56321;SDS011;42227;6.376;-10.782;2023-04-30T13:23:48;11.23;;;4.32;;
56321;SDS011;42227;6.376;-10.782;2023-04-30T13:26:20;17.02;;;4.82;;
56321;SDS011;42227;6.376;-10.782;2023-04-30T13:28:48;12.15;;;5.75;;
56321;SDS011;42227;6.376;-10.782;2023-04-30T13:31:16;12.60;;;4.15;;
56321;SDS011;42227;6.376;-10.782;2023-04-30T13:33:45;9.68;;;4.40;;
56321;SDS011;42227;6.376;-10.782;2023-04-30T13:36:13;8.20;;;4.65;;
56321;SDS011;42227;6.376;-10.782;2023-04-30T13:38:42;12.32;;;4.88;;
56321;SDS011;42227;6.376;-10.782;2023-04-30T13:41:10;9.82;;;5.20;;
56321;SDS011;42227;6.376;-10.782;2023-04-30T13:43:38;17.85;;;5.13;;
56321;SDS011;42227;6.376;-10.782;2023-04-30T13:46:08;8.02;;;4.53;;
56321;SDS011;42227;6.376;-10.782;2023-04-30T13:48:37;12.00;;;4.93;;
56321;SDS011;42227;6.376;-10.782;2023-04-30T13:51:05;16.85;;;5.57;;
56321;SDS011;42227;6.376;-10.782;2023-04-30T13:53:34;7.05;;;5.18;;
56321;SDS011;42227;6.376;-10.782;2023-04-30T13:56:02;11.05;;;4.97;;
56321;SDS011;42227;6.376;-10.782;2023-04-30T13:58:31;9.30;;;5.07;;
56321;SDS011;42227;6.376;-10.782;2023-04-30T14:00:59;7.85;;;4.63;;
56321;SDS011;42227;6.376;-10.782;2023-04-30T14:03:28;14.90;;;5.38;;
56321;SDS011;42227;6.376;-10.782;2023-04-30T14:05:56;13.57;;;5.25;;
56321;SDS011;42227;6.376;-10.782;2023-04-30T14:08:24;7.13;;;5.30;;
56321;SDS011;42227;6.376;-10.782;2023-04-30T14:10:53;15.38;;;11.95;;
56321;SDS011;42227;6.376;-10.782;2023-04-30T14:13:21;13.93;;;9.10;;
56321;SDS011;42227;6.376;-10.782;2023-04-30T14:15:50;12.38;;;6.28;;
56321;SDS011;42227;6.376;-10.782;2023-04-30T14:18:18;16.58;;;8.57;;
56321;SDS011;42227;6.376;-10.782;2023-04-30T14:20:46;16.58;;;9.50;;
56321;SDS011;42227;6.376;-10.782;2023-04-30T14:23:15;7.05;;;4.80;;
56321;SDS011;42227;6.376;-10.782;2023-04-30T14:25:43;10.88;;;6.15;;
56321;SDS011;42227;6.376;-10.782;2023-04-30T14:28:11;8.88;;;6.10;;
56321;SDS011;42227;6.376;-10.782;2023-04-30T14:30:40;8.10;;;5.00;;
56321;SDS011;42227;6.376;-10.782;2023-04-30T14:33:08;17.75;;;7.30;;
56321;SDS011;42227;6.376;-10.782;2023-04-30T14:35:36;13.38;;;6.50;;
56321;SDS011;42227;6.376;-10.782;2023-04-30T14:38:05;14.00;;;4.78;;
56321;SDS011;42227;6.376;-10.782;2023-04-30T14:40:33;8.18;;;5.00;;
56321;SDS011;42227;6.376;-10.782;2023-04-30T14:43:01;10.10;;;5.47;;
56321;SDS011;42227;6.376;-10.782;2023-04-30T14:45:31;12.50;;;4.80;;
56321;SDS011;42227;6.376;-10.782;2023-04-30T14:48:00;15.63;;;4.97;;
56321;SDS011;42227;6.376;-10.782;2023-04-30T14:50:31;13.15;;;5.65;;
56321;SDS011;42227;6.376;-10.782;2023-04-30T14:53:00;9.73;;;5.47;;
56321;SDS011;42227;6.376;-10.782;2023-04-30T14:55:28;12.77;;;8.13;;
56321;SDS011;42227;6.376;-10.782;2023-04-30T14:57:57;11.00;;;5.30;;
56321;SDS011;42227;6.376;-10.782;2023-04-30T15:00:26;14.52;;;4.40;;
56321;SDS011;42227;6.376;-10.782;2023-04-30T15:02:55;15.52;;;5.32;;
56321;SDS011;42227;6.376;-10.782;2023-04-30T15:05:24;7.97;;;4.85;;
56321;SDS011;42227;6.376;-10.782;2023-04-30T15:07:52;8.25;;;4.85;;
56321;SDS011;42227;6.376;-10.782;2023-04-30T15:10:20;10.80;;;5.78;;
56321;SDS011;42227;6.376;-10.782;2023-04-30T15:12:48;7.78;;;4.40;;
56321;SDS011;42227;6.376;-10.782;2023-04-30T15:15:17;15.48;;;5.60;;
56321;SDS011;42227;6.376;-10.782;2023-04-30T15:17:45;11.40;;;4.55;;